sensor_id;sensor_type;location;lat;lon;timestamp;P1;durP1;ratioP1;P2;durP2;ratioP2
46643;SDS011;32371;51.032;5.816;2024-01-15T00:01:40;27.25;;;10.10;;
46643;SDS011;32371;51.032;5.816;2024-01-15T00:04:07;30.63;;;11.23;;
46643;SDS011;32371;51.032;5.816;2024-01-15T00:06:32;32.90;;;10.65;;
46643;SDS011;32371;51.032;5.816;2024-01-15T00:08:58;25.52;;;9.50;;
46643;SDS011;32371;51.032;5.816;2024-01-15T00:11:24;32.00;;;10.15;;
46643;SDS011;32371;51.032;5.816;2024-01-15T00:13:49;30.80;;;10.88;;
46643;SDS011;32371;51.032;5.816;2024-01-15T00:16:14;26.50;;;8.85;;
46643;SDS011;32371;51.032;5.816;2024-01-15T00:18:40;25.25;;;10.18;;
46643;SDS011;32371;51.032;5.816;2024-01-15T00:21:05;26.80;;;11.13;;
46643;SDS011;32371;51.032;5.816;2024-01-15T00:23:30;32.97;;;11.07;;
46643;SDS011;32371;51.032;5.816;2024-01-15T00:25:56;25.77;;;10.27;;
46643;SDS011;32371;51.032;5.816;2024-01-15T00:28:21;26.73;;;9.98;;
46643;SDS011;32371;51.032;5.816;2024-01-15T00:30:46;26.83;;;10.35;;
46643;SDS011;32371;51.032;5.816;2024-01-15T00:33:12;27.45;;;10.23;;
46643;SDS011;32371;51.032;5.816;2024-01-15T00:35:40;23.77;;;9.25;;
46643;SDS011;32371;51.032;5.816;2024-01-15T00:38:06;22.23;;;8.32;;
46643;SDS011;32371;51.032;5.816;2024-01-15T00:40:31;26.60;;;9.98;;
46643;SDS011;32371;51.032;5.816;2024-01-15T00:42:56;32.53;;;9.98;;
46643;SDS011;32371;51.032;5.816;2024-01-15T00:45:22;33.10;;;10.57;;
46643;SDS011;32371;51.032;5.816;2024-01-15T00:47:47;24.67;;;9.57;;
46643;SDS011;32371;51.032;5.816;2024-01-15T00:50:12;23.85;;;8.85;;
46643;SDS011;32371;51.032;5.816;2024-01-15T00:52:38;25.55;;;11.13;;
46643;SDS011;32371;51.032;5.816;2024-01-15T00:55:03;26.23;;;10.38;;
46643;SDS011;32371;51.032;5.816;2024-01-15T00:57:29;24.13;;;9.30;;
46643;SDS011;32371;51.032;5.816;2024-01-15T00:59:54;30.08;;;10.75;;
46643;SDS011;32371;51.032;5.816;2024-01-15T01:02:20;30.40;;;9.63;;
46643;SDS011;32371;51.032;5.816;2024-01-15T01:04:45;28.02;;;10.13;;
46643;SDS011;32371;51.032;5.816;2024-01-15T01:07:10;30.02;;;8.57;;
46643;SDS011;32371;51.032;5.816;2024-01-15T01:09:36;24.80;;;9.63;;
46643;SDS011;32371;51.032;5.816;2024-01-15T01:12:01;25.70;;;8.60;;
46643;SDS011;32371;51.032;5.816;2024-01-15T01:14:27;23.65;;;8.63;;
46643;SDS011;32371;51.032;5.816;2024-01-15T01:16:52;25.75;;;9.57;;
46643;SDS011;32371;51.032;5.816;2024-01-15T01:19:17;19.85;;;7.93;;
46643;SDS011;32371;51.032;5.816;2024-01-15T01:21:42;31.92;;;9.70;;
46643;SDS011;32371;51.032;5.816;2024-01-15T01:24:08;31.50;;;8.82;;
46643;SDS011;32371;51.032;5.816;2024-01-15T01:26:33;25.58;;;8.65;;
46643;SDS011;32371;51.032;5.816;2024-01-15T01:28:59;21.77;;;10.93;;
46643;SDS011;32371;51.032;5.816;2024-01-15T01:31:25;21.10;;;8.43;;
46643;SDS011;32371;51.032;5.816;2024-01-15T01:33:50;28.05;;;8.52;;
46643;SDS011;32371;51.032;5.816;2024-01-15T01:36:15;24.75;;;8.27;;
46643;SDS011;32371;51.032;5.816;2024-01-15T01:38:41;24.00;;;8.73;;
46643;SDS011;32371;51.032;5.816;2024-01-15T01:41:06;23.70;;;8.55;;
46643;SDS011;32371;51.032;5.816;2024-01-15T01:43:32;21.92;;;8.60;;
46643;SDS011;32371;51.032;5.816;2024-01-15T01:45:57;22.23;;;8.15;;
46643;SDS011;32371;51.032;5.816;2024-01-15T01:48:23;28.40;;;9.10;;
46643;SDS011;32371;51.032;5.816;2024-01-15T01:50:50;23.75;;;9.38;;
46643;SDS011;32371;51.032;5.816;2024-01-15T01:53:17;18.15;;;8.60;;
46643;SDS011;32371;51.032;5.816;2024-01-15T01:55:43;29.75;;;10.77;;
46643;SDS011;32371;51.032;5.816;2024-01-15T01:58:08;24.88;;;9.38;;
46643;SDS011;32371;51.032;5.816;2024-01-15T02:00:34;20.55;;;9.40;;
46643;SDS011;32371;51.032;5.816;2024-01-15T02:03:00;24.40;;;8.38;;
46643;SDS011;32371;51.032;5.816;2024-01-15T02:05:25;21.42;;;8.48;;
46643;SDS011;32371;51.032;5.816;2024-01-15T02:07:51;20.83;;;9.75;;
46643;SDS011;32371;51.032;5.816;2024-01-15T02:10:17;20.10;;;8.50;;
46643;SDS011;32371;51.032;5.816;2024-01-15T02:12:42;30.80;;;8.63;;
46643;SDS011;32371;51.032;5.816;2024-01-15T02:15:08;23.88;;;9.82;;
46643;SDS011;32371;51.032;5.816;2024-01-15T02:17:33;19.27;;;8.10;;
46643;SDS011;32371;51.032;5.816;2024-01-15T02:19:59;22.27;;;8.10;;
46643;SDS011;32371;51.032;5.816;2024-01-15T02:22:24;23.35;;;8.93;;
46643;SDS011;32371;51.032;5.816;2024-01-15T02:24:50;26.00;;;9.27;;
46643;SDS011;32371;51.032;5.816;2024-01-15T02:27:15;20.65;;;8.55;;
46643;SDS011;32371;51.032;5.816;2024-01-15T02:29:41;24.17;;;8.80;;
46643;SDS011;32371;51.032;5.816;2024-01-15T02:32:08;26.48;;;9.07;;
46643;SDS011;32371;51.032;5.816;2024-01-15T02:34:34;23.70;;;9.00;;
46643;SDS011;32371;51.032;5.816;2024-01-15T02:36:59;18.23;;;8.20;;
46643;SDS011;32371;51.032;5.816;2024-01-15T02:39:24;18.40;;;8.13;;
46643;SDS011;32371;51.032;5.816;2024-01-15T02:41:50;21.17;;;7.28;;
46643;SDS011;32371;51.032;5.816;2024-01-15T02:44:15;17.15;;;6.50;;
46643;SDS011;32371;51.032;5.816;2024-01-15T02:46:40;17.65;;;7.82;;
46643;SDS011;32371;51.032;5.816;2024-01-15T02:49:06;18.75;;;7.57;;
46643;SDS011;32371;51.032;5.816;2024-01-15T02:51:31;16.27;;;6.47;;
46643;SDS011;32371;51.032;5.816;2024-01-15T02:53:56;23.60;;;7.00;;
46643;SDS011;32371;51.032;5.816;2024-01-15T02:56:22;16.10;;;6.47;;
46643;SDS011;32371;51.032;5.816;2024-01-15T02:58:47;11.32;;;6.00;;
46643;SDS011;32371;51.032;5.816;2024-01-15T03:01:13;24.70;;;7.50;;
46643;SDS011;32371;51.032;5.816;2024-01-15T03:03:39;18.88;;;6.68;;
46643;SDS011;32371;51.032;5.816;2024-01-15T03:06:05;15.45;;;7.07;;
46643;SDS011;32371;51.032;5.816;2024-01-15T03:08:30;21.13;;;7.85;;
46643;SDS011;32371;51.032;5.816;2024-01-15T03:10:56;18.20;;;6.07;;
46643;SDS011;32371;51.032;5.816;2024-01-15T03:13:21;21.23;;;7.15;;
46643;SDS011;32371;51.032;5.816;2024-01-15T03:15:46;13.25;;;6.68;;
46643;SDS011;32371;51.032;5.816;2024-01-15T03:18:12;21.73;;;7.32;;
46643;SDS011;32371;51.032;5.816;2024-01-15T03:20:37;30.17;;;9.05;;
46643;SDS011;32371;51.032;5.816;2024-01-15T03:23:03;13.75;;;7.15;;
46643;SDS011;32371;51.032;5.816;2024-01-15T03:25:28;18.52;;;7.22;;
46643;SDS011;32371;51.032;5.816;2024-01-15T03:27:53;19.30;;;7.32;;
46643;SDS011;32371;51.032;5.816;2024-01-15T03:30:19;18.92;;;7.40;;
46643;SDS011;32371;51.032;5.816;2024-01-15T03:32:47;20.23;;;9.13;;
46643;SDS011;32371;51.032;5.816;2024-01-15T03:35:14;16.88;;;7.10;;
46643;SDS011;32371;51.032;5.816;2024-01-15T03:37:40;17.65;;;6.45;;
46643;SDS011;32371;51.032;5.816;2024-01-15T03:40:05;16.27;;;7.25;;
46643;SDS011;32371;51.032;5.816;2024-01-15T03:42:31;19.33;;;7.70;;
46643;SDS011;32371;51.032;5.816;2024-01-15T03:44:57;19.10;;;6.63;;
46643;SDS011;32371;51.032;5.816;2024-01-15T03:47:22;24.30;;;7.85;;
46643;SDS011;32371;51.032;5.816;2024-01-15T03:49:47;18.42;;;6.68;;
46643;SDS011;32371;51.032;5.816;2024-01-15T03:52:13;15.07;;;6.63;;
46643;SDS011;32371;51.032;5.816;2024-01-15T03:54:38;13.38;;;6.00;;
46643;SDS011;32371;51.032;5.816;2024-01-15T03:57:04;16.20;;;6.13;;
46643;SDS011;32371;51.032;5.816;2024-01-15T03:59:29;14.60;;;6.10;;
46643;SDS011;32371;51.032;5.816;2024-01-15T04:01:54;13.23;;;5.13;;
46643;SDS011;32371;51.032;5.816;2024-01-15T04:04:20;14.70;;;5.20;;
46643;SDS011;32371;51.032;5.816;2024-01-15T04:06:45;14.23;;;4.18;;
46643;SDS011;32371;51.032;5.816;2024-01-15T04:09:13;7.43;;;3.58;;
46643;SDS011;32371;51.032;5.816;2024-01-15T04:11:40;6.85;;;3.50;;
46643;SDS011;32371;51.032;5.816;2024-01-15T04:14:05;11.48;;;4.28;;
46643;SDS011;32371;51.032;5.816;2024-01-15T04:16:30;9.20;;;4.47;;
46643;SDS011;32371;51.032;5.816;2024-01-15T04:18:56;12.02;;;4.30;;
46643;SDS011;32371;51.032;5.816;2024-01-15T04:21:21;10.13;;;4.57;;
46643;SDS011;32371;51.032;5.816;2024-01-15T04:23:46;14.20;;;4.88;;
46643;SDS011;32371;51.032;5.816;2024-01-15T04:26:12;9.05;;;4.05;;
46643;SDS011;32371;51.032;5.816;2024-01-15T04:28:37;12.57;;;4.35;;
46643;SDS011;32371;51.032;5.816;2024-01-15T04:31:03;8.60;;;5.03;;
46643;SDS011;32371;51.032;5.816;2024-01-15T04:33:28;12.25;;;4.97;;
46643;SDS011;32371;51.032;5.816;2024-01-15T04:35:55;14.65;;;6.03;;
46643;SDS011;32371;51.032;5.816;2024-01-15T04:38:20;12.15;;;4.85;;
46643;SDS011;32371;51.032;5.816;2024-01-15T04:40:45;10.70;;;4.70;;
46643;SDS011;32371;51.032;5.816;2024-01-15T04:43:11;11.13;;;4.72;;
46643;SDS011;32371;51.032;5.816;2024-01-15T04:45:36;9.52;;;4.60;;
46643;SDS011;32371;51.032;5.816;2024-01-15T04:48:01;13.68;;;5.55;;
46643;SDS011;32371;51.032;5.816;2024-01-15T04:50:28;10.25;;;4.65;;
46643;SDS011;32371;51.032;5.816;2024-01-15T04:52:53;11.38;;;5.50;;
46643;SDS011;32371;51.032;5.816;2024-01-15T04:55:18;14.82;;;5.82;;
46643;SDS011;32371;51.032;5.816;2024-01-15T04:57:44;13.15;;;5.75;;
46643;SDS011;32371;51.032;5.816;2024-01-15T05:00:09;12.73;;;5.78;;
46643;SDS011;32371;51.032;5.816;2024-01-15T05:02:35;15.25;;;6.22;;
46643;SDS011;32371;51.032;5.816;2024-01-15T05:05:01;16.27;;;5.80;;
46643;SDS011;32371;51.032;5.816;2024-01-15T05:07:26;11.73;;;5.70;;
46643;SDS011;32371;51.032;5.816;2024-01-15T05:09:51;12.95;;;5.70;;
46643;SDS011;32371;51.032;5.816;2024-01-15T05:12:16;11.20;;;5.28;;
46643;SDS011;32371;51.032;5.816;2024-01-15T05:14:42;9.77;;;5.90;;
46643;SDS011;32371;51.032;5.816;2024-01-15T05:17:07;16.42;;;5.80;;
46643;SDS011;32371;51.032;5.816;2024-01-15T05:19:33;16.20;;;6.18;;
46643;SDS011;32371;51.032;5.816;2024-01-15T05:21:58;12.13;;;4.72;;
46643;SDS011;32371;51.032;5.816;2024-01-15T05:24:23;11.43;;;4.43;;
46643;SDS011;32371;51.032;5.816;2024-01-15T05:26:51;12.13;;;5.63;;
46643;SDS011;32371;51.032;5.816;2024-01-15T05:29:16;14.23;;;5.30;;
46643;SDS011;32371;51.032;5.816;2024-01-15T05:31:42;10.10;;;4.45;;
46643;SDS011;32371;51.032;5.816;2024-01-15T05:34:08;12.23;;;4.47;;
46643;SDS011;32371;51.032;5.816;2024-01-15T05:36:33;11.52;;;5.43;;
46643;SDS011;32371;51.032;5.816;2024-01-15T05:38:59;10.43;;;4.30;;
46643;SDS011;32371;51.032;5.816;2024-01-15T05:41:24;10.13;;;3.72;;
46643;SDS011;32371;51.032;5.816;2024-01-15T05:43:49;12.73;;;4.78;;
46643;SDS011;32371;51.032;5.816;2024-01-15T05:46:15;6.93;;;3.72;;
46643;SDS011;32371;51.032;5.816;2024-01-15T05:48:41;6.78;;;3.25;;
46643;SDS011;32371;51.032;5.816;2024-01-15T05:51:07;10.98;;;4.32;;
46643;SDS011;32371;51.032;5.816;2024-01-15T05:53:32;10.68;;;4.80;;
46643;SDS011;32371;51.032;5.816;2024-01-15T05:55:58;10.52;;;5.03;;
46643;SDS011;32371;51.032;5.816;2024-01-15T05:58:23;10.30;;;4.95;;
46643;SDS011;32371;51.032;5.816;2024-01-15T06:00:49;14.98;;;5.45;;
46643;SDS011;32371;51.032;5.816;2024-01-15T06:03:15;16.67;;;5.40;;
46643;SDS011;32371;51.032;5.816;2024-01-15T06:05:40;11.43;;;4.63;;
46643;SDS011;32371;51.032;5.816;2024-01-15T06:08:06;14.68;;;6.05;;
46643;SDS011;32371;51.032;5.816;2024-01-15T06:10:31;11.27;;;5.25;;
46643;SDS011;32371;51.032;5.816;2024-01-15T06:12:56;12.65;;;6.00;;
46643;SDS011;32371;51.032;5.816;2024-01-15T06:15:22;15.43;;;6.38;;
46643;SDS011;32371;51.032;5.816;2024-01-15T06:17:47;15.75;;;5.30;;
46643;SDS011;32371;51.032;5.816;2024-01-15T06:20:13;13.93;;;5.28;;
46643;SDS011;32371;51.032;5.816;2024-01-15T06:22:38;11.25;;;5.70;;
46643;SDS011;32371;51.032;5.816;2024-01-15T06:25:05;15.85;;;5.63;;
46643;SDS011;32371;51.032;5.816;2024-01-15T06:27:32;14.18;;;5.95;;
46643;SDS011;32371;51.032;5.816;2024-01-15T06:29:57;11.65;;;6.30;;
46643;SDS011;32371;51.032;5.816;2024-01-15T06:32:23;13.55;;;6.70;;
46643;SDS011;32371;51.032;5.816;2024-01-15T06:34:48;17.83;;;7.45;;
46643;SDS011;32371;51.032;5.816;2024-01-15T06:37:13;16.70;;;7.05;;
46643;SDS011;32371;51.032;5.816;2024-01-15T06:39:39;14.10;;;5.93;;
46643;SDS011;32371;51.032;5.816;2024-01-15T06:42:04;21.13;;;6.82;;
46643;SDS011;32371;51.032;5.816;2024-01-15T06:44:30;15.38;;;7.65;;
46643;SDS011;32371;51.032;5.816;2024-01-15T06:46:55;18.27;;;6.78;;
46643;SDS011;32371;51.032;5.816;2024-01-15T06:49:22;22.92;;;8.85;;
46643;SDS011;32371;51.032;5.816;2024-01-15T06:51:48;15.50;;;7.10;;
46643;SDS011;32371;51.032;5.816;2024-01-15T06:54:13;16.60;;;7.57;;
46643;SDS011;32371;51.032;5.816;2024-01-15T06:56:38;20.25;;;8.23;;
46643;SDS011;32371;51.032;5.816;2024-01-15T06:59:04;19.73;;;8.02;;
46643;SDS011;32371;51.032;5.816;2024-01-15T07:01:29;18.52;;;7.55;;
46643;SDS011;32371;51.032;5.816;2024-01-15T07:03:54;17.77;;;6.53;;
46643;SDS011;32371;51.032;5.816;2024-01-15T07:06:20;18.67;;;7.35;;
46643;SDS011;32371;51.032;5.816;2024-01-15T07:08:45;20.20;;;7.38;;
46643;SDS011;32371;51.032;5.816;2024-01-15T07:11:11;17.23;;;7.00;;
46643;SDS011;32371;51.032;5.816;2024-01-15T07:13:36;19.77;;;7.32;;
46643;SDS011;32371;51.032;5.816;2024-01-15T07:16:02;20.63;;;7.47;;
46643;SDS011;32371;51.032;5.816;2024-01-15T07:18:28;18.02;;;7.57;;
46643;SDS011;32371;51.032;5.816;2024-01-15T07:20:53;26.27;;;8.15;;
46643;SDS011;32371;51.032;5.816;2024-01-15T07:23:19;14.65;;;6.72;;
46643;SDS011;32371;51.032;5.816;2024-01-15T07:25:44;18.25;;;7.25;;
46643;SDS011;32371;51.032;5.816;2024-01-15T07:28:09;20.63;;;6.95;;
46643;SDS011;32371;51.032;5.816;2024-01-15T07:30:35;15.55;;;7.57;;
46643;SDS011;32371;51.032;5.816;2024-01-15T07:33:03;18.92;;;8.90;;
46643;SDS011;32371;51.032;5.816;2024-01-15T07:35:29;16.00;;;7.47;;
46643;SDS011;32371;51.032;5.816;2024-01-15T07:37:54;20.02;;;7.32;;
46643;SDS011;32371;51.032;5.816;2024-01-15T07:40:20;20.60;;;8.45;;
46643;SDS011;32371;51.032;5.816;2024-01-15T07:42:45;20.23;;;8.10;;
46643;SDS011;32371;51.032;5.816;2024-01-15T07:45:10;15.40;;;6.85;;
46643;SDS011;32371;51.032;5.816;2024-01-15T07:47:36;17.48;;;7.00;;
46643;SDS011;32371;51.032;5.816;2024-01-15T07:50:01;24.67;;;7.60;;
46643;SDS011;32371;51.032;5.816;2024-01-15T07:52:27;16.30;;;6.78;;
46643;SDS011;32371;51.032;5.816;2024-01-15T07:54:52;17.02;;;7.32;;
46643;SDS011;32371;51.032;5.816;2024-01-15T07:57:18;16.65;;;6.22;;
46643;SDS011;32371;51.032;5.816;2024-01-15T07:59:43;16.88;;;5.85;;
46643;SDS011;32371;51.032;5.816;2024-01-15T08:02:08;15.38;;;6.25;;
46643;SDS011;32371;51.032;5.816;2024-01-15T08:04:36;11.82;;;5.30;;
46643;SDS011;32371;51.032;5.816;2024-01-15T08:07:02;18.23;;;6.78;;
46643;SDS011;32371;51.032;5.816;2024-01-15T08:09:28;18.77;;;6.00;;
46643;SDS011;32371;51.032;5.816;2024-01-15T08:11:54;9.80;;;5.20;;
46643;SDS011;32371;51.032;5.816;2024-01-15T08:14:19;13.85;;;5.13;;
46643;SDS011;32371;51.032;5.816;2024-01-15T08:16:45;10.38;;;4.68;;
46643;SDS011;32371;51.032;5.816;2024-01-15T08:19:10;11.48;;;4.70;;
46643;SDS011;32371;51.032;5.816;2024-01-15T08:21:36;10.48;;;5.22;;
46643;SDS011;32371;51.032;5.816;2024-01-15T08:24:01;10.95;;;5.03;;
46643;SDS011;32371;51.032;5.816;2024-01-15T08:26:28;11.18;;;4.75;;
46643;SDS011;32371;51.032;5.816;2024-01-15T08:28:53;12.40;;;4.55;;
46643;SDS011;32371;51.032;5.816;2024-01-15T08:31:19;7.07;;;3.42;;
46643;SDS011;32371;51.032;5.816;2024-01-15T08:33:44;8.40;;;3.55;;
46643;SDS011;32371;51.032;5.816;2024-01-15T08:36:10;6.35;;;3.53;;
46643;SDS011;32371;51.032;5.816;2024-01-15T08:38:35;8.55;;;3.72;;
46643;SDS011;32371;51.032;5.816;2024-01-15T08:41:00;10.70;;;4.22;;
46643;SDS011;32371;51.032;5.816;2024-01-15T08:43:26;4.75;;;2.75;;
46643;SDS011;32371;51.032;5.816;2024-01-15T08:45:52;4.82;;;2.85;;
46643;SDS011;32371;51.032;5.816;2024-01-15T08:48:18;4.45;;;3.08;;
46643;SDS011;32371;51.032;5.816;2024-01-15T08:50:43;8.00;;;2.65;;
46643;SDS011;32371;51.032;5.816;2024-01-15T08:53:11;4.22;;;2.72;;
46643;SDS011;32371;51.032;5.816;2024-01-15T08:55:37;5.57;;;2.58;;
46643;SDS011;32371;51.032;5.816;2024-01-15T08:58:02;4.55;;;3.00;;
46643;SDS011;32371;51.032;5.816;2024-01-15T09:00:28;1.98;;;1.73;;
46643;SDS011;32371;51.032;5.816;2024-01-15T09:02:53;3.83;;;2.10;;
46643;SDS011;32371;51.032;5.816;2024-01-15T09:05:19;6.35;;;2.20;;
46643;SDS011;32371;51.032;5.816;2024-01-15T09:07:44;4.75;;;1.88;;
46643;SDS011;32371;51.032;5.816;2024-01-15T09:10:11;1.92;;;1.80;;
46643;SDS011;32371;51.032;5.816;2024-01-15T09:12:36;4.65;;;2.03;;
46643;SDS011;32371;51.032;5.816;2024-01-15T09:15:01;2.03;;;1.55;;
46643;SDS011;32371;51.032;5.816;2024-01-15T09:17:29;2.45;;;1.65;;
46643;SDS011;32371;51.032;5.816;2024-01-15T09:19:54;3.13;;;1.20;;
46643;SDS011;32371;51.032;5.816;2024-01-15T09:22:20;3.03;;;1.17;;
46643;SDS011;32371;51.032;5.816;2024-01-15T09:24:45;3.30;;;1.30;;
46643;SDS011;32371;51.032;5.816;2024-01-15T09:27:12;1.70;;;1.35;;
46643;SDS011;32371;51.032;5.816;2024-01-15T09:29:38;2.35;;;1.65;;
46643;SDS011;32371;51.032;5.816;2024-01-15T09:32:05;1.27;;;1.17;;
46643;SDS011;32371;51.032;5.816;2024-01-15T09:34:32;1.90;;;1.55;;
46643;SDS011;32371;51.032;5.816;2024-01-15T09:36:58;2.10;;;1.20;;
46643;SDS011;32371;51.032;5.816;2024-01-15T09:39:24;2.33;;;1.58;;
46643;SDS011;32371;51.032;5.816;2024-01-15T09:41:51;2.22;;;1.25;;
46643;SDS011;32371;51.032;5.816;2024-01-15T09:44:17;7.50;;;1.30;;
46643;SDS011;32371;51.032;5.816;2024-01-15T09:46:42;4.50;;;1.98;;
46643;SDS011;32371;51.032;5.816;2024-01-15T09:49:09;3.75;;;1.40;;
46643;SDS011;32371;51.032;5.816;2024-01-15T09:51:35;2.53;;;1.45;;
46643;SDS011;32371;51.032;5.816;2024-01-15T09:54:01;3.03;;;1.13;;
46643;SDS011;32371;51.032;5.816;2024-01-15T09:56:27;1.42;;;1.10;;
46643;SDS011;32371;51.032;5.816;2024-01-15T09:58:52;1.02;;;1.02;;
46643;SDS011;32371;51.032;5.816;2024-01-15T10:01:18;2.38;;;1.50;;
46643;SDS011;32371;51.032;5.816;2024-01-15T10:03:45;1.27;;;0.90;;
46643;SDS011;32371;51.032;5.816;2024-01-15T10:06:11;1.40;;;1.15;;
46643;SDS011;32371;51.032;5.816;2024-01-15T10:08:42;1.33;;;1.17;;
46643;SDS011;32371;51.032;5.816;2024-01-15T10:11:09;2.05;;;1.23;;
46643;SDS011;32371;51.032;5.816;2024-01-15T10:13:34;2.92;;;1.80;;
46643;SDS011;32371;51.032;5.816;2024-01-15T10:16:00;2.63;;;1.55;;
46643;SDS011;32371;51.032;5.816;2024-01-15T10:18:28;4.85;;;2.25;;
46643;SDS011;32371;51.032;5.816;2024-01-15T10:20:53;4.65;;;2.20;;
46643;SDS011;32371;51.032;5.816;2024-01-15T10:23:18;9.60;;;2.50;;
46643;SDS011;32371;51.032;5.816;2024-01-15T10:25:44;5.30;;;2.45;;
46643;SDS011;32371;51.032;5.816;2024-01-15T10:28:09;1.95;;;1.70;;
46643;SDS011;32371;51.032;5.816;2024-01-15T10:30:35;3.58;;;2.38;;
46643;SDS011;32371;51.032;5.816;2024-01-15T10:33:01;4.63;;;2.17;;
46643;SDS011;32371;51.032;5.816;2024-01-15T10:35:30;7.65;;;2.65;;
46643;SDS011;32371;51.032;5.816;2024-01-15T10:37:57;3.35;;;2.00;;
46643;SDS011;32371;51.032;5.816;2024-01-15T10:40:22;2.47;;;1.75;;
46643;SDS011;32371;51.032;5.816;2024-01-15T10:42:48;5.40;;;2.20;;
46643;SDS011;32371;51.032;5.816;2024-01-15T10:45:14;3.58;;;2.40;;
46643;SDS011;32371;51.032;5.816;2024-01-15T10:47:40;5.55;;;2.22;;
46643;SDS011;32371;51.032;5.816;2024-01-15T10:50:06;6.40;;;2.58;;
46643;SDS011;32371;51.032;5.816;2024-01-15T10:52:33;5.28;;;2.78;;
46643;SDS011;32371;51.032;5.816;2024-01-15T10:54:59;7.53;;;2.40;;
46643;SDS011;32371;51.032;5.816;2024-01-15T10:57:25;5.57;;;2.00;;
46643;SDS011;32371;51.032;5.816;2024-01-15T10:59:51;7.65;;;2.10;;
46643;SDS011;32371;51.032;5.816;2024-01-15T11:02:16;6.95;;;2.15;;
46643;SDS011;32371;51.032;5.816;2024-01-15T11:04:42;2.42;;;1.55;;
46643;SDS011;32371;51.032;5.816;2024-01-15T11:07:07;6.97;;;1.85;;
46643;SDS011;32371;51.032;5.816;2024-01-15T11:09:33;2.40;;;1.50;;
46643;SDS011;32371;51.032;5.816;2024-01-15T11:12:10;7.60;;;2.25;;
46643;SDS011;32371;51.032;5.816;2024-01-15T11:14:40;3.60;;;1.73;;
46643;SDS011;32371;51.032;5.816;2024-01-15T11:17:08;3.58;;;2.05;;
46643;SDS011;32371;51.032;5.816;2024-01-15T11:22:10;5.13;;;1.40;;
46643;SDS011;32371;51.032;5.816;2024-01-15T11:24:54;9.07;;;1.90;;
46643;SDS011;32371;51.032;5.816;2024-01-15T11:27:39;4.43;;;1.50;;
46643;SDS011;32371;51.032;5.816;2024-01-15T11:30:17;6.25;;;1.77;;
46643;SDS011;32371;51.032;5.816;2024-01-15T11:32:42;4.78;;;1.67;;
46643;SDS011;32371;51.032;5.816;2024-01-15T11:35:08;7.15;;;1.80;;
46643;SDS011;32371;51.032;5.816;2024-01-15T11:40:22;4.78;;;1.42;;
46643;SDS011;32371;51.032;5.816;2024-01-15T11:43:02;9.63;;;1.65;;
46643;SDS011;32371;51.032;5.816;2024-01-15T11:45:28;3.35;;;1.10;;
46643;SDS011;32371;51.032;5.816;2024-01-15T11:50:39;3.40;;;1.45;;
46643;SDS011;32371;51.032;5.816;2024-01-15T11:53:09;8.65;;;1.98;;
46643;SDS011;32371;51.032;5.816;2024-01-15T11:55:44;14.55;;;1.33;;
46643;SDS011;32371;51.032;5.816;2024-01-15T11:58:10;9.50;;;1.40;;
46643;SDS011;32371;51.032;5.816;2024-01-15T12:00:43;5.93;;;1.10;;
46643;SDS011;32371;51.032;5.816;2024-01-15T12:03:17;1.77;;;1.25;;
46643;SDS011;32371;51.032;5.816;2024-01-15T12:05:46;3.13;;;1.60;;
46643;SDS011;32371;51.032;5.816;2024-01-15T12:08:11;5.22;;;1.38;;
46643;SDS011;32371;51.032;5.816;2024-01-15T12:10:37;6.13;;;1.50;;
46643;SDS011;32371;51.032;5.816;2024-01-15T12:15:36;3.40;;;1.42;;
46643;SDS011;32371;51.032;5.816;2024-01-15T12:18:03;1.25;;;0.73;;
46643;SDS011;32371;51.032;5.816;2024-01-15T12:20:29;0.90;;;0.60;;
46643;SDS011;32371;51.032;5.816;2024-01-15T12:22:55;0.90;;;0.70;;
46643;SDS011;32371;51.032;5.816;2024-01-15T12:25:21;5.55;;;2.30;;
46643;SDS011;32371;51.032;5.816;2024-01-15T12:27:47;1.40;;;0.55;;
46643;SDS011;32371;51.032;5.816;2024-01-15T12:30:13;0.80;;;0.77;;
46643;SDS011;32371;51.032;5.816;2024-01-15T12:32:39;2.78;;;0.60;;
46643;SDS011;32371;51.032;5.816;2024-01-15T12:35:06;5.13;;;0.60;;
46643;SDS011;32371;51.032;5.816;2024-01-15T12:37:32;2.05;;;0.65;;
46643;SDS011;32371;51.032;5.816;2024-01-15T12:40:00;1.80;;;0.73;;
46643;SDS011;32371;51.032;5.816;2024-01-15T12:42:28;2.63;;;0.90;;
46643;SDS011;32371;51.032;5.816;2024-01-15T12:44:56;0.82;;;0.82;;
46643;SDS011;32371;51.032;5.816;2024-01-15T12:47:22;1.05;;;0.80;;
46643;SDS011;32371;51.032;5.816;2024-01-15T12:49:47;0.95;;;0.50;;
46643;SDS011;32371;51.032;5.816;2024-01-15T12:52:18;1.60;;;0.50;;
46643;SDS011;32371;51.032;5.816;2024-01-15T12:54:44;1.60;;;0.85;;
46643;SDS011;32371;51.032;5.816;2024-01-15T12:57:09;0.30;;;0.30;;
46643;SDS011;32371;51.032;5.816;2024-01-15T12:59:35;2.15;;;0.60;;
46643;SDS011;32371;51.032;5.816;2024-01-15T13:02:00;0.68;;;0.43;;
46643;SDS011;32371;51.032;5.816;2024-01-15T13:04:26;1.52;;;0.60;;
46643;SDS011;32371;51.032;5.816;2024-01-15T13:06:52;1.10;;;0.50;;
46643;SDS011;32371;51.032;5.816;2024-01-15T13:09:18;3.05;;;0.60;;
46643;SDS011;32371;51.032;5.816;2024-01-15T13:11:46;0.60;;;0.40;;
46643;SDS011;32371;51.032;5.816;2024-01-15T13:14:12;1.52;;;0.60;;
46643;SDS011;32371;51.032;5.816;2024-01-15T13:16:41;1.10;;;0.40;;
46643;SDS011;32371;51.032;5.816;2024-01-15T13:19:09;2.95;;;0.80;;
46643;SDS011;32371;51.032;5.816;2024-01-15T13:21:36;6.07;;;0.60;;
46643;SDS011;32371;51.032;5.816;2024-01-15T13:24:02;3.28;;;0.50;;
46643;SDS011;32371;51.032;5.816;2024-01-15T13:26:30;0.32;;;0.30;;
46643;SDS011;32371;51.032;5.816;2024-01-15T13:28:56;0.38;;;0.38;;
46643;SDS011;32371;51.032;5.816;2024-01-15T13:31:22;1.77;;;0.43;;
46643;SDS011;32371;51.032;5.816;2024-01-15T13:33:47;7.47;;;1.02;;
46643;SDS011;32371;51.032;5.816;2024-01-15T13:36:13;2.42;;;0.30;;
46643;SDS011;32371;51.032;5.816;2024-01-15T13:38:38;1.83;;;0.60;;
46643;SDS011;32371;51.032;5.816;2024-01-15T13:41:04;0.35;;;0.35;;
46643;SDS011;32371;51.032;5.816;2024-01-15T13:43:31;0.40;;;0.38;;
46643;SDS011;32371;51.032;5.816;2024-01-15T13:45:56;0.47;;;0.30;;
46643;SDS011;32371;51.032;5.816;2024-01-15T13:48:22;0.40;;;0.40;;
46643;SDS011;32371;51.032;5.816;2024-01-15T13:50:47;2.40;;;0.50;;
46643;SDS011;32371;51.032;5.816;2024-01-15T13:53:13;3.70;;;0.68;;
46643;SDS011;32371;51.032;5.816;2024-01-15T13:55:38;0.93;;;0.60;;
46643;SDS011;32371;51.032;5.816;2024-01-15T13:58:04;0.88;;;0.40;;
46643;SDS011;32371;51.032;5.816;2024-01-15T14:00:31;0.65;;;0.30;;
46643;SDS011;32371;51.032;5.816;2024-01-15T14:02:57;5.30;;;0.82;;
46643;SDS011;32371;51.032;5.816;2024-01-15T14:05:22;0.45;;;0.30;;
46643;SDS011;32371;51.032;5.816;2024-01-15T14:07:48;1.27;;;0.20;;
46643;SDS011;32371;51.032;5.816;2024-01-15T14:10:13;8.13;;;0.40;;
46643;SDS011;32371;51.032;5.816;2024-01-15T14:12:39;4.63;;;0.50;;
46643;SDS011;32371;51.032;5.816;2024-01-15T14:15:05;0.40;;;0.40;;
46643;SDS011;32371;51.032;5.816;2024-01-15T14:17:31;0.93;;;0.65;;
46643;SDS011;32371;51.032;5.816;2024-01-15T14:19:56;1.45;;;0.32;;
46643;SDS011;32371;51.032;5.816;2024-01-15T14:22:22;0.73;;;0.57;;
46643;SDS011;32371;51.032;5.816;2024-01-15T14:24:47;1.08;;;0.82;;
46643;SDS011;32371;51.032;5.816;2024-01-15T14:27:12;2.83;;;1.70;;
46643;SDS011;32371;51.032;5.816;2024-01-15T14:29:38;2.92;;;0.30;;
46643;SDS011;32371;51.032;5.816;2024-01-15T14:32:03;7.00;;;1.30;;
46643;SDS011;32371;51.032;5.816;2024-01-15T14:34:29;1.38;;;0.40;;
46643;SDS011;32371;51.032;5.816;2024-01-15T14:36:54;4.70;;;0.50;;
46643;SDS011;32371;51.032;5.816;2024-01-15T14:39:20;1.92;;;0.55;;
46643;SDS011;32371;51.032;5.816;2024-01-15T14:41:46;2.63;;;0.40;;
46643;SDS011;32371;51.032;5.816;2024-01-15T14:44:11;0.57;;;0.57;;